createdAt,value
2022-12-23T00:00:30.067Z,3.40
2022-12-23T00:02:56.616Z,2.97
2022-12-23T00:05:23.082Z,2.73
2022-12-23T00:07:50.001Z,3.20
2022-12-23T00:10:16.385Z,3.03
2022-12-23T00:13:00.800Z,2.83
2022-12-23T00:15:27.051Z,3.27
2022-12-23T00:17:53.313Z,3.10
2022-12-23T00:20:19.757Z,3.40
2022-12-23T00:23:04.092Z,2.90
2022-12-23T00:25:40.255Z,3.33
2022-12-23T00:28:10.556Z,3.10
2022-12-23T00:30:37.158Z,2.90
2022-12-23T00:33:03.565Z,3.20
2022-12-23T00:35:30.669Z,3.10
2022-12-23T00:37:56.789Z,3.37
2022-12-23T00:40:41.862Z,2.87
2022-12-23T00:43:08.769Z,2.70
2022-12-23T00:45:34.968Z,2.90
2022-12-23T00:48:19.286Z,2.90
2022-12-23T00:50:45.504Z,2.97
2022-12-23T00:53:11.785Z,3.00
2022-12-23T00:55:38.213Z,2.40
2022-12-23T00:58:04.398Z,2.43
2022-12-23T01:00:49.818Z,2.50
2022-12-23T01:03:34.523Z,2.23
2022-12-23T01:06:01.454Z,2.23
2022-12-23T01:08:28.025Z,3.17
2022-12-23T01:10:54.681Z,2.07
2022-12-23T01:13:21.170Z,2.23
2022-12-23T01:15:48.087Z,2.03
2022-12-23T01:18:14.300Z,2.40
2022-12-23T01:20:40.763Z,1.90
2022-12-23T01:23:07.255Z,2.13
2022-12-23T01:25:33.453Z,2.30
2022-12-23T01:28:01.615Z,2.17
2022-12-23T01:30:27.818Z,2.10
2022-12-23T01:32:54.673Z,2.13
2022-12-23T01:35:20.836Z,1.97
2022-12-23T01:37:47.090Z,2.10
2022-12-23T01:40:13.470Z,2.23
2022-12-23T01:42:45.869Z,2.37
2022-12-23T01:45:18.300Z,2.53
2022-12-23T01:47:49.045Z,2.53
2022-12-23T01:50:17.584Z,3.23
2022-12-23T01:52:46.768Z,2.40
2022-12-23T01:55:14.479Z,2.60
2022-12-23T01:57:41.984Z,2.87
2022-12-23T02:00:27.424Z,2.70
2022-12-23T02:03:12.176Z,2.97
2022-12-23T02:05:39.385Z,3.00
2022-12-23T02:08:24.282Z,3.20
2022-12-23T02:11:03.962Z,3.60
2022-12-23T02:13:34.111Z,2.93
2022-12-23T02:16:17.370Z,3.17
2022-12-23T02:19:01.405Z,3.10
2022-12-23T02:21:36.459Z,3.67
2022-12-23T02:24:57.650Z,3.53
2022-12-23T02:27:27.672Z,3.43
2022-12-23T02:30:26.475Z,3.80
2022-12-23T02:33:03.040Z,3.70
2022-12-23T02:35:33.377Z,3.73
2022-12-23T02:38:03.984Z,3.80
2022-12-23T02:40:35.746Z,3.93
2022-12-23T02:43:05.761Z,4.13
2022-12-23T02:45:36.116Z,4.07
2022-12-23T02:48:05.279Z,4.13
2022-12-23T02:50:34.001Z,4.20
2022-12-23T02:53:02.514Z,3.80
2022-12-23T02:55:31.080Z,4.60
2022-12-23T02:58:00.228Z,4.23
2022-12-23T03:00:26.620Z,4.90
2022-12-23T03:02:53.178Z,5.20
2022-12-23T03:05:25.139Z,5.00
2022-12-23T03:07:52.418Z,5.50
2022-12-23T03:10:21.688Z,5.70
2022-12-23T03:12:54.661Z,5.60
2022-12-23T03:15:29.832Z,5.80
2022-12-23T03:18:02.939Z,6.20
2022-12-23T03:20:35.731Z,5.80
2022-12-23T03:23:06.394Z,6.07
2022-12-23T03:25:35.417Z,6.33
2022-12-23T03:28:08.352Z,6.00
2022-12-23T03:30:36.446Z,6.33
2022-12-23T03:33:05.074Z,6.40
2022-12-23T03:35:40.483Z,7.30
2022-12-23T03:38:07.617Z,6.20
2022-12-23T03:40:35.787Z,7.00
2022-12-23T03:43:05.097Z,7.20
2022-12-23T03:45:40.779Z,6.73
2022-12-23T03:48:10.852Z,7.30
2022-12-23T03:50:39.012Z,6.90
2022-12-23T03:53:08.341Z,6.10
2022-12-23T03:55:36.510Z,6.47
2022-12-23T03:58:08.589Z,6.30
2022-12-23T04:00:39.425Z,6.80
2022-12-23T04:03:10.902Z,6.40
2022-12-23T04:05:39.867Z,6.13
2022-12-23T04:08:11.431Z,6.53
2022-12-23T04:10:37.772Z,5.70
2022-12-23T04:13:04.017Z,6.07
2022-12-23T04:15:30.486Z,5.87
2022-12-23T04:17:57.823Z,5.53
2022-12-23T04:20:24.685Z,6.23
2022-12-23T04:22:51.567Z,6.00
2022-12-23T04:25:17.999Z,6.33
2022-12-23T04:27:44.262Z,5.70
2022-12-23T04:30:14.938Z,5.67
2022-12-23T04:32:41.520Z,5.70
2022-12-23T04:35:08.719Z,5.60
2022-12-23T04:37:35.040Z,5.00
2022-12-23T04:40:02.142Z,5.80
2022-12-23T04:42:28.345Z,4.73
2022-12-23T04:44:54.687Z,4.70
2022-12-23T04:47:20.890Z,5.00
2022-12-23T04:49:47.126Z,4.90
2022-12-23T04:52:13.475Z,4.53
2022-12-23T04:54:45.760Z,3.90
2022-12-23T04:57:13.121Z,4.70
2022-12-23T04:59:39.342Z,3.93
2022-12-23T05:02:05.781Z,4.30
2022-12-23T05:04:32.235Z,4.10
2022-12-23T05:07:01.358Z,4.00
2022-12-23T05:09:27.584Z,3.60
2022-12-23T05:11:54.100Z,3.70
2022-12-23T05:14:23.450Z,3.80
2022-12-23T05:16:49.800Z,3.50
2022-12-23T05:19:16.841Z,3.20
2022-12-23T05:21:43.176Z,3.27
2022-12-23T05:24:09.332Z,3.27
2022-12-23T05:26:35.669Z,3.40
2022-12-23T05:29:01.823Z,3.03
2022-12-23T05:31:28.757Z,2.90
2022-12-23T05:33:56.047Z,2.90
2022-12-23T05:36:24.566Z,3.00
2022-12-23T05:38:50.839Z,3.20
2022-12-23T05:41:17.104Z,3.33
2022-12-23T05:43:43.351Z,3.03
2022-12-23T05:46:09.635Z,2.90
2022-12-23T05:48:36.478Z,2.70
2022-12-23T05:51:02.826Z,3.30
2022-12-23T05:53:29.043Z,3.10
2022-12-23T05:55:55.191Z,3.07
2022-12-23T05:58:21.452Z,3.40
2022-12-23T06:00:47.710Z,3.03
2022-12-23T06:03:14.142Z,3.40
2022-12-23T06:05:42.744Z,3.50
2022-12-23T06:08:09.150Z,4.40
2022-12-23T06:10:35.347Z,3.60
2022-12-23T06:13:01.525Z,4.20
2022-12-23T06:15:27.791Z,4.10
2022-12-23T06:17:55.431Z,4.17
2022-12-23T06:20:21.610Z,4.37
2022-12-23T06:22:48.519Z,4.13
2022-12-23T06:25:14.975Z,4.53
2022-12-23T06:27:41.222Z,4.60
2022-12-23T06:30:08.606Z,4.43
2022-12-23T06:32:38.666Z,4.40
2022-12-23T06:35:06.266Z,4.10
2022-12-23T06:37:32.445Z,4.63
2022-12-23T06:39:59.378Z,5.43
2022-12-23T06:42:25.698Z,4.80
2022-12-23T06:44:51.980Z,4.50
2022-12-23T06:47:18.229Z,4.87
2022-12-23T06:49:44.484Z,5.37
2022-12-23T06:52:10.699Z,4.80
2022-12-23T06:54:36.926Z,4.90
2022-12-23T06:57:03.884Z,4.93
2022-12-23T06:59:30.826Z,4.57
2022-12-23T07:01:57.194Z,4.60
2022-12-23T07:04:23.577Z,4.13
2022-12-23T07:06:49.803Z,4.37
2022-12-23T07:09:16.061Z,4.53
2022-12-23T07:11:42.261Z,4.67
2022-12-23T07:14:09.337Z,4.57
2022-12-23T07:16:35.642Z,5.33
2022-12-23T07:19:02.840Z,4.90
2022-12-23T07:21:30.127Z,5.20
2022-12-23T07:23:56.595Z,5.03
2022-12-23T07:26:22.822Z,4.70
2022-12-23T07:28:49.005Z,5.27
2022-12-23T07:31:16.015Z,5.03
2022-12-23T07:33:42.345Z,4.80
2022-12-23T07:36:09.259Z,5.90
2022-12-23T07:38:35.631Z,5.00
2022-12-23T07:41:01.835Z,6.03
2022-12-23T07:43:27.999Z,6.00
2022-12-23T07:45:59.869Z,6.23
2022-12-23T07:48:27.399Z,6.47
2022-12-23T07:50:53.632Z,5.60
2022-12-23T07:53:19.899Z,5.70
2022-12-23T07:55:49.070Z,5.83
2022-12-23T07:58:17.823Z,5.90
2022-12-23T08:00:44.045Z,5.93
2022-12-23T08:03:11.203Z,6.30
2022-12-23T08:05:38.094Z,7.03
2022-12-23T08:08:04.672Z,6.63
2022-12-23T08:10:30.978Z,6.47
2022-12-23T08:13:00.006Z,6.80
2022-12-23T08:15:26.197Z,6.67
2022-12-23T08:17:54.562Z,6.83
2022-12-23T08:20:20.702Z,6.87
2022-12-23T08:22:47.536Z,6.50
2022-12-23T08:25:14.155Z,6.50
2022-12-23T08:27:40.365Z,6.63
2022-12-23T08:30:07.689Z,6.10
2022-12-23T08:32:35.587Z,6.80
2022-12-23T08:35:01.902Z,6.77
2022-12-23T08:37:28.223Z,7.37
2022-12-23T08:39:55.113Z,6.43
2022-12-23T08:42:21.343Z,7.53
2022-12-23T08:44:47.505Z,7.20
2022-12-23T08:47:13.658Z,7.00
2022-12-23T08:49:39.919Z,6.33
2022-12-23T08:52:06.058Z,6.83
2022-12-23T08:54:32.218Z,6.73
2022-12-23T08:56:59.371Z,7.77
2022-12-23T08:59:25.729Z,8.60
2022-12-23T09:01:52.048Z,7.40
2022-12-23T09:04:18.237Z,7.23
2022-12-23T09:06:45.051Z,7.17
2022-12-23T09:09:13.453Z,6.83
2022-12-23T09:11:40.196Z,7.60
2022-12-23T09:14:07.746Z,6.97
2022-12-23T09:16:34.079Z,6.83
2022-12-23T09:19:00.375Z,7.13
2022-12-23T09:21:26.737Z,6.93
2022-12-23T09:23:53.018Z,7.40
2022-12-23T09:26:22.061Z,5.97
2022-12-23T09:28:48.355Z,6.43
2022-12-23T09:31:15.421Z,6.37
2022-12-23T09:33:41.928Z,6.27
2022-12-23T09:36:08.301Z,6.47
2022-12-23T09:38:35.249Z,5.47
2022-12-23T09:41:03.274Z,6.63
2022-12-23T09:43:35.816Z,6.10
2022-12-23T09:46:06.587Z,6.30
2022-12-23T09:48:37.279Z,7.13
2022-12-23T09:51:04.410Z,6.07
2022-12-23T09:53:43.327Z,5.90
2022-12-23T09:56:16.416Z,6.03
2022-12-23T09:58:47.979Z,5.93
2022-12-23T10:01:19.427Z,6.10
2022-12-23T10:04:04.157Z,5.83
2022-12-23T10:06:30.569Z,5.93
2022-12-23T10:08:58.924Z,6.60
2022-12-23T10:11:26.226Z,6.67
2022-12-23T10:13:54.562Z,6.60
2022-12-23T10:16:22.891Z,6.73
2022-12-23T10:18:53.357Z,6.83
2022-12-23T10:21:26.282Z,6.53
2022-12-23T10:23:54.095Z,6.73
2022-12-23T10:26:23.894Z,8.07
2022-12-23T10:28:51.565Z,7.50
2022-12-23T10:34:12.494Z,7.23
2022-12-23T10:36:44.962Z,7.17
2022-12-23T10:39:22.651Z,7.60
2022-12-23T10:41:57.700Z,7.53
2022-12-23T10:44:43.010Z,6.73
2022-12-23T10:47:17.197Z,6.83
2022-12-23T10:49:50.334Z,6.23
2022-12-23T10:52:19.280Z,5.53
2022-12-23T10:54:47.369Z,6.10
2022-12-23T10:57:15.393Z,5.30
2022-12-23T10:59:42.014Z,5.50
2022-12-23T11:02:24.865Z,5.33
2022-12-23T11:04:52.039Z,4.97
2022-12-23T11:10:14.206Z,4.80
2022-12-23T11:12:42.543Z,5.37
2022-12-23T11:15:26.206Z,3.87
2022-12-23T11:18:02.105Z,4.23
2022-12-23T11:20:29.498Z,3.87
2022-12-23T11:22:59.090Z,3.97
2022-12-23T11:25:28.881Z,3.30
2022-12-23T11:27:57.906Z,3.37
2022-12-23T11:30:26.625Z,3.20
2022-12-23T11:32:52.984Z,3.20
2022-12-23T11:35:24.831Z,3.63
2022-12-23T11:37:51.799Z,3.43
2022-12-23T11:40:24.254Z,3.20
2022-12-23T11:42:55.279Z,3.00
2022-12-23T11:45:25.185Z,3.17
2022-12-23T11:47:51.836Z,3.23
2022-12-23T11:50:27.999Z,3.70
2022-12-23T11:53:01.937Z,2.93
2022-12-23T11:55:32.114Z,3.40
2022-12-23T11:57:59.232Z,2.77
2022-12-23T12:00:28.139Z,2.97
2022-12-23T12:02:55.873Z,4.27
2022-12-23T12:05:32.853Z,3.37
2022-12-23T12:08:00.907Z,3.50
2022-12-23T12:10:29.724Z,3.57
2022-12-23T12:12:57.993Z,3.50
2022-12-23T12:15:29.140Z,4.03
2022-12-23T12:17:56.462Z,4.20
2022-12-23T12:20:28.301Z,5.07
2022-12-23T12:22:56.667Z,5.13
2022-12-23T12:25:31.342Z,5.30
2022-12-23T12:28:01.114Z,5.50
2022-12-23T12:30:32.442Z,5.10
2022-12-23T12:33:00.592Z,6.30
2022-12-23T12:35:32.182Z,5.57
2022-12-23T12:38:02.481Z,6.30
2022-12-23T12:40:32.352Z,6.50
2022-12-23T12:43:02.937Z,4.87
2022-12-23T12:45:34.077Z,5.53
2022-12-23T12:48:18.270Z,5.30
2022-12-23T12:50:50.752Z,4.90
2022-12-23T12:53:19.851Z,4.43
2022-12-23T12:55:49.926Z,5.27
2022-12-23T12:58:19.775Z,4.43
2022-12-23T13:00:51.855Z,4.23
2022-12-23T13:03:28.393Z,4.50
2022-12-23T13:06:00.103Z,4.50
2022-12-23T13:08:42.018Z,4.20
2022-12-23T13:11:14.427Z,3.73
2022-12-23T13:13:45.783Z,3.17
2022-12-23T13:16:20.771Z,3.07
2022-12-23T13:18:52.004Z,2.93
2022-12-23T13:21:24.427Z,2.80
2022-12-23T13:24:00.501Z,2.97
2022-12-23T13:26:36.926Z,3.00
2022-12-23T13:29:26.734Z,2.57
2022-12-23T13:31:56.594Z,2.50
2022-12-23T13:34:34.045Z,2.40
2022-12-23T13:37:05.807Z,2.77
2022-12-23T13:39:39.414Z,2.63
2022-12-23T13:42:13.310Z,2.40
2022-12-23T13:44:39.757Z,2.17
2022-12-23T13:47:11.990Z,2.40
2022-12-23T13:49:50.619Z,2.00
2022-12-23T13:52:22.572Z,2.50
2022-12-23T13:54:55.454Z,2.20
2022-12-23T13:57:31.224Z,2.40
2022-12-23T14:00:05.548Z,2.03
2022-12-23T14:02:48.438Z,2.50
2022-12-23T14:05:30.300Z,2.90
2022-12-23T14:07:57.666Z,2.63
2022-12-23T14:10:24.444Z,3.27
2022-12-23T14:12:52.824Z,3.00
2022-12-23T14:15:38.906Z,3.00
2022-12-23T14:18:14.226Z,2.30
2022-12-23T14:20:48.191Z,2.93
2022-12-23T14:23:24.803Z,2.60
2022-12-23T14:26:00.925Z,2.80
2022-12-23T14:28:36.980Z,3.10
2022-12-23T14:31:04.199Z,3.20
2022-12-23T14:33:37.191Z,3.10
2022-12-23T14:36:22.194Z,3.27
2022-12-23T14:39:24.197Z,3.37
2022-12-23T14:41:51.952Z,3.87
2022-12-23T14:44:20.213Z,3.40
2022-12-23T14:46:56.581Z,3.60
2022-12-23T14:49:39.883Z,3.40
2022-12-23T14:52:53.056Z,3.70
2022-12-23T14:55:48.080Z,3.20
2022-12-23T14:58:25.441Z,4.20
2022-12-23T15:00:56.978Z,3.70
2022-12-23T15:03:23.384Z,3.73
2022-12-23T15:05:50.244Z,4.13
2022-12-23T15:08:27.367Z,4.40
2022-12-23T15:10:53.970Z,3.63
2022-12-23T15:13:20.398Z,4.30
2022-12-23T15:16:01.240Z,3.70
2022-12-23T15:18:28.586Z,3.90
2022-12-23T15:20:59.586Z,3.60
2022-12-23T15:23:25.831Z,3.97
2022-12-23T15:25:55.269Z,3.60
2022-12-23T15:28:23.250Z,3.80
2022-12-23T15:30:52.436Z,3.90
2022-12-23T15:34:01.681Z,3.83
2022-12-23T15:36:11.935Z,3.40
2022-12-23T15:38:38.863Z,3.70
2022-12-23T15:41:12.479Z,3.57
2022-12-23T15:43:40.976Z,3.70
2022-12-23T15:46:09.263Z,4.10
2022-12-23T15:48:37.280Z,3.90
2022-12-23T15:51:06.055Z,4.23
2022-12-23T15:53:34.094Z,4.43
2022-12-23T15:56:04.899Z,3.90
2022-12-23T15:58:33.140Z,4.13
2022-12-23T16:01:00.272Z,4.00
2022-12-23T16:03:31.481Z,4.33
2022-12-23T16:06:07.832Z,5.03
2022-12-23T16:08:37.651Z,4.20
2022-12-23T16:11:10.051Z,4.63
2022-12-23T16:13:38.223Z,4.47
2022-12-23T16:16:18.592Z,4.53
2022-12-23T16:18:47.603Z,4.20
2022-12-23T16:21:15.144Z,4.30
2022-12-23T16:23:48.821Z,3.63
2022-12-23T16:26:15.050Z,4.33
2022-12-23T16:28:43.419Z,3.80
2022-12-23T16:31:10.132Z,3.80
2022-12-23T16:33:38.861Z,3.63
2022-12-23T16:36:20.603Z,2.77
2022-12-23T16:38:48.171Z,3.13
2022-12-23T16:41:14.921Z,2.63
2022-12-23T16:43:44.715Z,2.37
2022-12-23T16:46:18.955Z,2.67
2022-12-23T16:48:49.111Z,2.10
2022-12-23T16:51:17.719Z,2.60
2022-12-23T16:53:43.994Z,2.13
2022-12-23T16:56:11.755Z,2.93
2022-12-23T16:58:38.211Z,2.30
2022-12-23T17:01:04.620Z,2.10
2022-12-23T17:03:31.888Z,2.00
2022-12-23T17:05:58.673Z,1.83
2022-12-23T17:08:25.672Z,1.80
2022-12-23T17:10:52.141Z,1.90
2022-12-23T17:13:18.902Z,2.20
2022-12-23T17:15:45.166Z,1.80
2022-12-23T17:18:13.278Z,1.70
2022-12-23T17:20:39.583Z,1.50
2022-12-23T17:23:06.273Z,1.50
2022-12-23T17:25:33.201Z,1.90
2022-12-23T17:27:59.634Z,1.50
2022-12-23T17:30:25.952Z,2.03
2022-12-23T17:32:55.393Z,1.80
2022-12-23T17:35:26.248Z,2.20
2022-12-23T17:37:53.086Z,2.03
2022-12-23T17:40:19.760Z,2.10
2022-12-23T17:42:47.089Z,1.83
2022-12-23T17:45:23.833Z,1.77
2022-12-23T17:47:50.175Z,2.57
2022-12-23T17:50:16.522Z,2.73
2022-12-23T17:52:42.861Z,2.00
2022-12-23T17:55:15.837Z,2.10
2022-12-23T17:57:42.107Z,2.20
2022-12-23T18:00:10.459Z,2.20
2022-12-23T18:02:38.320Z,2.27
2022-12-23T18:05:17.797Z,2.20
2022-12-23T18:07:44.158Z,2.60
2022-12-23T18:10:12.313Z,2.63
2022-12-23T18:12:40.888Z,2.00
2022-12-23T18:15:17.317Z,2.23
2022-12-23T18:17:43.856Z,2.53
2022-12-23T18:20:14.473Z,2.47
2022-12-23T18:22:40.804Z,2.40
2022-12-23T18:25:13.552Z,2.70
2022-12-23T18:27:39.777Z,3.03
2022-12-23T18:30:07.359Z,2.77
2022-12-23T18:32:34.860Z,3.00
2022-12-23T18:35:01.147Z,3.10
2022-12-23T18:37:27.408Z,2.60
2022-12-23T18:39:53.615Z,3.03
2022-12-23T18:42:20.397Z,3.17
2022-12-23T18:44:47.709Z,2.27
2022-12-23T18:47:14.020Z,2.67
2022-12-23T18:49:40.945Z,3.30
2022-12-23T18:52:11.812Z,3.10
2022-12-23T18:54:40.887Z,3.43
2022-12-23T18:57:07.092Z,3.73
2022-12-23T18:59:36.757Z,4.03
2022-12-23T19:02:03.083Z,3.60
2022-12-23T19:04:29.359Z,3.57
2022-12-23T19:06:56.975Z,3.60
2022-12-23T19:09:24.040Z,4.07
2022-12-23T19:11:52.140Z,3.80
2022-12-23T19:14:18.322Z,4.30
2022-12-23T19:16:50.980Z,3.97
2022-12-23T19:19:18.061Z,3.57
2022-12-23T19:21:44.294Z,3.90
2022-12-23T19:24:11.114Z,4.13
2022-12-23T19:26:37.310Z,3.33
2022-12-23T19:29:03.505Z,3.87
2022-12-23T19:31:30.066Z,3.87
2022-12-23T19:33:56.453Z,4.00
2022-12-23T19:36:22.898Z,4.10
2022-12-23T19:38:49.603Z,3.57
2022-12-23T19:41:16.700Z,4.17
2022-12-23T19:43:44.440Z,4.03
2022-12-23T19:46:11.777Z,3.73
2022-12-23T19:48:38.756Z,4.30
2022-12-23T19:51:06.440Z,3.60
2022-12-23T19:53:32.942Z,4.03
2022-12-23T19:56:00.359Z,3.73
2022-12-23T19:58:27.851Z,4.07
2022-12-23T20:01:05.207Z,3.40
2022-12-23T20:03:31.528Z,4.07
2022-12-23T20:05:57.835Z,4.07
2022-12-23T20:08:24.143Z,3.90
2022-12-23T20:10:50.312Z,3.70
2022-12-23T20:13:16.460Z,3.53
2022-12-23T20:15:43.416Z,3.73
2022-12-23T20:18:09.687Z,6.00
2022-12-23T20:20:36.923Z,4.00
2022-12-23T20:23:03.153Z,4.17
2022-12-23T20:25:29.457Z,5.23
2022-12-23T20:27:55.682Z,3.87
2022-12-23T20:30:21.909Z,4.10
2022-12-23T20:32:48.667Z,4.00
2022-12-23T20:35:15.063Z,3.93
2022-12-23T20:37:44.236Z,4.07
2022-12-23T20:40:12.057Z,3.60
2022-12-23T20:42:38.263Z,3.77
2022-12-23T20:45:05.176Z,3.90
2022-12-23T20:47:31.944Z,4.07
2022-12-23T20:49:58.842Z,3.73
2022-12-23T20:52:25.148Z,4.00
2022-12-23T20:54:51.490Z,3.80
2022-12-23T20:57:17.685Z,4.20
2022-12-23T20:59:43.928Z,3.50
2022-12-23T21:02:11.762Z,4.03
2022-12-23T21:04:38.183Z,3.73
2022-12-23T21:07:05.903Z,4.10
2022-12-23T21:09:32.718Z,3.70
2022-12-23T21:11:58.953Z,4.50
2022-12-23T21:14:25.870Z,4.43
2022-12-23T21:16:52.628Z,3.70
2022-12-23T21:19:21.224Z,3.50
2022-12-23T21:21:48.785Z,3.57
2022-12-23T21:24:16.669Z,3.53
2022-12-23T21:26:47.743Z,3.47
2022-12-23T21:29:18.123Z,3.47
2022-12-23T21:31:47.085Z,3.20
2022-12-23T21:34:13.791Z,2.97
2022-12-23T21:36:41.054Z,3.23
2022-12-23T21:39:08.094Z,3.53
2022-12-23T21:41:36.455Z,2.80
2022-12-23T21:44:03.293Z,3.60
2022-12-23T21:46:29.689Z,3.93
2022-12-23T21:48:57.072Z,2.63
2022-12-23T21:51:25.381Z,4.00
2022-12-23T21:53:53.133Z,3.13
2022-12-23T21:56:20.942Z,3.80
2022-12-23T21:58:47.883Z,3.20
2022-12-23T22:01:15.489Z,3.63
2022-12-23T22:03:41.853Z,3.70
2022-12-23T22:06:10.902Z,3.40
2022-12-23T22:08:37.893Z,3.97
2022-12-23T22:11:06.199Z,3.23
2022-12-23T22:13:32.700Z,3.60
2022-12-23T22:15:59.767Z,3.67
2022-12-23T22:18:26.137Z,3.70
2022-12-23T22:20:52.697Z,3.50
2022-12-23T22:23:19.943Z,3.47
2022-12-23T22:25:52.001Z,3.90
2022-12-23T22:28:18.166Z,3.23
2022-12-23T22:30:44.473Z,4.00
2022-12-23T22:33:11.301Z,3.73
2022-12-23T22:35:37.468Z,3.80
2022-12-23T22:38:03.643Z,3.20
2022-12-23T22:40:29.926Z,3.50
2022-12-23T22:42:56.200Z,4.20
2022-12-23T22:45:22.483Z,3.80
2022-12-23T22:47:48.718Z,3.63
2022-12-23T22:50:15.813Z,3.53
2022-12-23T22:52:42.178Z,3.80
2022-12-23T22:55:08.687Z,3.87
2022-12-23T22:57:35.838Z,3.87
2022-12-23T23:00:07.903Z,3.60
2022-12-23T23:02:38.086Z,3.83
2022-12-23T23:05:10.842Z,3.60
2022-12-23T23:07:39.630Z,3.63
2022-12-23T23:10:07.371Z,3.40
2022-12-23T23:12:33.653Z,3.77
2022-12-23T23:15:00.005Z,3.40
2022-12-23T23:17:27.334Z,3.40
2022-12-23T23:19:54.013Z,3.67
2022-12-23T23:22:22.083Z,3.43
2022-12-23T23:24:49.139Z,4.73
2022-12-23T23:27:15.724Z,3.47
2022-12-23T23:29:44.206Z,3.43
2022-12-23T23:32:12.477Z,3.43
2022-12-23T23:34:39.866Z,4.17
2022-12-23T23:37:06.250Z,4.27
2022-12-23T23:39:32.478Z,3.67
2022-12-23T23:41:59.443Z,3.50
2022-12-23T23:44:25.881Z,3.83
2022-12-23T23:46:52.142Z,3.87
2022-12-23T23:49:18.536Z,3.83
2022-12-23T23:51:44.917Z,3.17
2022-12-23T23:54:11.478Z,3.80
2022-12-23T23:56:39.180Z,4.60
2022-12-23T23:59:06.910Z,3.50
